Time;durP1;ratioP1;P1;durP2;ratioP2;P2;SDS_P1;SDS_P2;PMS_P1;PMS_P2;Temp;Humidity;BMP_temperature;BMP_pressure;BME280_temperature;BME280_humidity;BME280_pressure;Samples;Min_cycle;Max_cycle;Signal;HPM_P1;HPM_P2
2022/04/07 00:00:16;;;;;;;21.75;3.45;;;;;;;9.09;100.00;99011.50;4952590;28;20030;-73
2022/04/07 00:02:42;;;;;;;17.48;3.10;;;;;;;9.14;100.00;98997.94;4941031;28;20066;-72
2022/04/07 00:05:07;;;;;;;12.13;3.05;;;;;;;9.20;100.00;99000.19;4969750;28;20030;-72
2022/04/07 00:07:33;;;;;;;14.68;2.75;;;;;;;9.27;100.00;99004.09;4969062;28;20042;-73
2022/04/07 00:09:59;;;;;;;14.52;2.90;;;;;;;9.30;100.00;98992.47;4964647;28;20030;-72
2022/04/07 00:12:24;;;;;;;14.30;3.28;;;;;;;9.30;100.00;98990.66;4969895;28;20023;-73
2022/04/07 00:14:49;;;;;;;17.17;2.70;;;;;;;9.34;100.00;98989.50;4938626;28;20138;-73
2022/04/07 00:17:15;;;;;;;15.05;2.95;;;;;;;9.37;100.00;98974.41;4946936;28;20031;-73
2022/04/07 00:19:40;;;;;;;15.35;2.45;;;;;;;9.40;100.00;98982.97;4942043;28;20039;-73
2022/04/07 00:22:06;;;;;;;10.00;3.38;;;;;;;9.41;100.00;98946.81;4952223;28;20125;-73
2022/04/07 00:24:31;;;;;;;11.82;2.92;;;;;;;9.42;100.00;98978.38;4935208;28;20038;-73
2022/04/07 00:26:57;;;;;;;10.73;2.50;;;;;;;9.45;100.00;98975.56;4936274;28;20130;-73
2022/04/07 00:29:22;;;;;;;12.55;3.00;;;;;;;9.47;100.00;98967.50;4932966;28;20058;-74
2022/04/07 00:31:55;;;;;;;15.90;3.65;;;;;;;9.48;100.00;98956.81;4972046;28;20069;-74
2022/04/07 00:34:21;;;;;;;16.15;2.60;;;;;;;9.48;100.00;98948.06;4966949;28;20035;-73
2022/04/07 00:36:46;;;;;;;17.75;3.13;;;;;;;9.47;100.00;98956.94;4949306;28;20379;-74
2022/04/07 00:39:12;;;;;;;16.10;2.88;;;;;;;9.45;100.00;98940.34;4948286;28;20035;-74
2022/04/07 00:41:39;;;;;;;15.07;2.70;;;;;;;9.48;100.00;98938.34;4930820;28;20027;-74
2022/04/07 00:44:08;;;;;;;14.38;2.75;;;;;;;9.48;100.00;98935.69;4948147;28;20033;-72
2022/04/07 00:46:38;;;;;;;17.08;2.95;;;;;;;9.44;100.00;98931.59;4962451;28;20034;-73
2022/04/07 00:49:04;;;;;;;12.48;3.22;;;;;;;9.43;100.00;98915.84;4948692;28;20398;-72
2022/04/07 00:51:30;;;;;;;18.80;3.40;;;;;;;9.44;100.00;98925.47;4961891;28;20038;-72
2022/04/07 00:53:56;;;;;;;14.98;3.08;;;;;;;9.45;100.00;98903.34;4957432;28;20031;-73
2022/04/07 00:56:23;;;;;;;17.92;3.28;;;;;;;9.43;100.00;98902.63;4969324;28;20218;-72
2022/04/07 00:58:49;;;;;;;16.48;3.03;;;;;;;9.38;100.00;98910.03;4946534;28;20054;-73
2022/04/07 01:01:17;;;;;;;16.27;3.35;;;;;;;9.39;100.00;98886.16;4951314;28;20054;-72
2022/04/07 01:03:43;;;;;;;16.52;2.80;;;;;;;9.39;100.00;98888.81;4967833;28;20031;-73
2022/04/07 01:06:08;;;;;;;21.20;3.58;;;;;;;9.38;100.00;98862.50;4946075;28;20090;-72
2022/04/07 01:08:34;;;;;;;14.00;2.72;;;;;;;9.41;100.00;98856.97;4966083;28;20109;-73
2022/04/07 01:10:59;;;;;;;15.13;3.25;;;;;;;9.38;100.00;98873.91;4933754;28;20027;-73
2022/04/07 01:13:45;;;;;;;13.70;3.15;;;;;;;9.40;100.00;98879.06;4968613;28;20035;-72
2022/04/07 01:16:10;;;;;;;14.35;3.10;;;;;;;9.33;100.00;98870.75;4942656;28;20057;-73
2022/04/07 01:18:36;;;;;;;20.58;3.85;;;;;;;9.24;100.00;98852.91;4934598;28;20390;-73
2022/04/07 01:21:01;;;;;;;15.18;3.30;;;;;;;9.19;100.00;98840.03;4962469;28;20038;-72
2022/04/07 01:23:33;;;;;;;20.27;3.33;;;;;;;9.17;100.00;98819.03;4966816;28;20050;-73
2022/04/07 01:25:59;;;;;;;19.67;3.38;;;;;;;9.18;100.00;98835.69;4964053;28;20035;-73
2022/04/07 01:28:25;;;;;;;19.55;3.28;;;;;;;9.22;100.00;98831.03;4948107;28;20046;-72
2022/04/07 01:30:51;;;;;;;20.75;3.97;;;;;;;9.20;100.00;98835.59;4945039;28;20402;-72
2022/04/07 01:33:18;;;;;;;20.13;3.80;;;;;;;9.20;100.00;98832.97;4941984;28;20031;-73
2022/04/07 01:35:44;;;;;;;25.55;4.25;;;;;;;9.18;100.00;98804.88;4964867;28;20027;-72
2022/04/07 01:38:09;;;;;;;16.85;3.33;;;;;;;9.18;100.00;98811.94;4964364;28;20491;-72
2022/04/07 01:40:35;;;;;;;18.85;3.47;;;;;;;9.20;100.00;98788.91;4964532;28;20080;-72
2022/04/07 01:43:05;;;;;;;18.95;4.18;;;;;;;9.22;100.00;98792.28;4963276;28;20041;-74
2022/04/07 01:45:33;;;;;;;22.88;3.65;;;;;;;9.16;100.00;98812.03;4967422;28;20034;-73
2022/04/07 01:48:01;;;;;;;22.35;3.92;;;;;;;9.04;100.00;98751.34;4947519;28;20881;-73
2022/04/07 01:50:29;;;;;;;17.13;3.67;;;;;;;8.92;100.00;98764.47;4965007;28;20031;-73
2022/04/07 01:52:56;;;;;;;19.88;3.53;;;;;;;8.88;100.00;98770.94;4964422;28;20035;-72
2022/04/07 01:55:23;;;;;;;21.80;4.03;;;;;;;8.83;100.00;98754.59;4962813;28;20028;-73
2022/04/07 01:57:49;;;;;;;21.98;3.65;;;;;;;8.85;100.00;98750.88;4964779;28;20078;-74
2022/04/07 02:00:15;;;;;;;30.55;3.97;;;;;;;8.94;100.00;98762.59;4967086;28;20042;-72
2022/04/07 02:02:41;;;;;;;19.80;3.50;;;;;;;9.00;100.00;98725.19;4968059;28;20031;-72
2022/04/07 02:05:11;;;;;;;23.38;4.72;;;;;;;9.10;100.00;98756.19;4963242;28;20406;-72
2022/04/07 02:07:41;;;;;;;22.00;4.30;;;;;;;9.18;100.00;98762.63;4962072;28;20062;-72
2022/04/07 02:10:08;;;;;;;19.73;3.10;;;;;;;9.20;100.00;98770.41;4962372;28;20260;-73
2022/04/07 02:12:37;;;;;;;21.70;3.42;;;;;;;9.25;100.00;98749.81;4955470;28;20038;-74
2022/04/07 02:15:03;;;;;;;18.50;3.83;;;;;;;9.29;100.00;98764.47;4971097;28;20045;-72
2022/04/07 02:17:28;;;;;;;21.20;3.30;;;;;;;9.33;100.00;98728.97;4950487;28;20031;-72
2022/04/07 02:19:56;;;;;;;26.55;4.60;;;;;;;9.33;100.00;98689.34;4931617;28;20106;-73
2022/04/07 02:22:22;;;;;;;25.73;3.70;;;;;;;9.34;100.00;98735.09;4972869;28;20029;-72
2022/04/07 02:24:48;;;;;;;22.23;3.85;;;;;;;9.34;100.00;98728.00;4973180;28;20022;-72
2022/04/07 02:27:16;;;;;;;19.30;4.10;;;;;;;9.36;100.00;98701.47;4952280;28;20214;-72
2022/04/07 02:29:42;;;;;;;21.92;3.88;;;;;;;9.34;100.00;98714.78;4974110;28;20033;-73
2022/04/07 02:32:09;;;;;;;29.52;3.65;;;;;;;9.37;100.00;98710.25;4978347;28;20030;-73
2022/04/07 02:34:35;;;;;;;18.60;3.75;;;;;;;9.39;100.00;98705.69;4956389;28;20405;-73
2022/04/07 02:37:01;;;;;;;28.15;3.50;;;;;;;9.39;100.00;98716.25;4954838;28;20039;-73
2022/04/07 02:39:26;;;;;;;24.20;3.90;;;;;;;9.36;100.00;98719.97;4954148;28;20034;-72
2022/04/07 02:41:53;;;;;;;27.42;4.10;;;;;;;9.33;100.00;98696.41;4954498;28;20475;-73
2022/04/07 02:44:19;;;;;;;27.13;3.97;;;;;;;9.34;100.00;98698.09;4971407;28;20207;-72
2022/04/07 02:46:45;;;;;;;27.73;4.28;;;;;;;9.30;100.00;98701.94;4952756;28;20141;-72
2022/04/07 02:49:10;;;;;;;23.70;4.18;;;;;;;9.22;100.00;98673.44;4965960;28;20031;-73
2022/04/07 02:51:35;;;;;;;22.50;4.40;;;;;;;9.18;100.00;98646.44;4961283;28;20041;-73
2022/04/07 02:54:01;;;;;;;24.75;4.60;;;;;;;9.18;100.00;98653.47;4951030;28;20402;-74
2022/04/07 02:56:28;;;;;;;24.65;4.30;;;;;;;9.21;100.00;98662.97;4964342;28;20186;-72
2022/04/07 02:58:53;;;;;;;25.08;4.07;;;;;;;9.19;100.00;98657.81;4972768;28;20039;-72
2022/04/07 03:01:19;;;;;;;25.55;4.10;;;;;;;9.18;100.00;98667.56;4948728;28;20045;-72
2022/04/07 03:03:45;;;;;;;26.40;4.18;;;;;;;9.22;100.00;98668.16;4962990;28;20199;-72
2022/04/07 03:06:10;;;;;;;20.05;3.75;;;;;;;9.20;100.00;98638.38;4971519;28;20116;-72
2022/04/07 03:08:36;;;;;;;22.98;3.88;;;;;;;9.23;100.00;98637.31;4947163;28;20483;-72
2022/04/07 03:11:02;;;;;;;25.20;3.90;;;;;;;9.25;100.00;98632.75;4971470;28;20027;-73
2022/04/07 03:13:27;;;;;;;17.80;4.22;;;;;;;9.25;100.00;98630.97;4959013;28;20042;-73
2022/04/07 03:15:53;;;;;;;22.23;3.50;;;;;;;9.23;100.00;98619.66;4971337;28;20038;-73
2022/04/07 03:18:18;;;;;;;20.95;3.13;;;;;;;9.18;100.00;98588.34;4960032;28;20038;-72
2022/04/07 03:20:44;;;;;;;21.73;3.85;;;;;;;9.16;100.00;98599.97;4943125;28;20053;-72
2022/04/07 03:23:09;;;;;;;21.85;3.67;;;;;;;9.14;100.00;98593.94;4951678;28;20035;-74
2022/04/07 03:25:36;;;;;;;16.63;3.75;;;;;;;9.10;100.00;98587.22;4945954;28;20038;-73
2022/04/07 03:28:02;;;;;;;18.85;3.83;;;;;;;9.09;100.00;98596.09;4965948;28;20471;-73
2022/04/07 03:30:27;;;;;;;23.67;4.05;;;;;;;9.02;100.00;98556.13;4964589;28;20114;-73
2022/04/07 03:32:53;;;;;;;22.30;4.13;;;;;;;8.87;100.00;98555.44;4945914;28;20585;-74
2022/04/07 03:35:18;;;;;;;29.42;4.50;;;;;;;8.76;100.00;98552.75;4977511;28;20073;-75
2022/04/07 03:37:43;;;;;;;20.05;3.90;;;;;;;8.65;100.00;98556.22;4969545;28;20085;-72
2022/04/07 03:40:10;;;;;;;25.55;4.07;;;;;;;8.58;100.00;98547.06;4977480;28;20053;-73
2022/04/07 03:42:36;;;;;;;17.48;3.35;;;;;;;8.53;100.00;98521.03;4950430;28;20166;-72
2022/04/07 03:45:01;;;;;;;32.40;4.20;;;;;;;8.56;100.00;98520.78;4964228;28;20502;-72
2022/04/07 03:47:27;;;;;;;19.67;3.45;;;;;;;8.52;100.00;98517.53;4974734;28;20536;-72
2022/04/07 03:49:52;;;;;;;17.30;3.22;;;;;;;8.58;100.00;98518.03;4971047;28;20065;-72
2022/04/07 03:52:18;;;;;;;17.27;3.42;;;;;;;8.59;100.00;98503.91;4927209;28;20027;-72
2022/04/07 03:54:43;;;;;;;19.40;2.97;;;;;;;8.59;100.00;98470.44;4959785;28;20030;-72
2022/04/07 03:57:08;;;;;;;17.95;3.85;;;;;;;8.64;100.00;98480.66;4979742;28;20066;-72
2022/04/07 03:59:38;;;;;;;17.58;3.33;;;;;;;8.74;100.00;98455.25;4957747;28;20035;-73
2022/04/07 04:02:06;;;;;;;18.02;3.00;;;;;;;8.77;100.00;98419.88;4969837;28;20050;-72
2022/04/07 04:04:31;;;;;;;19.27;3.53;;;;;;;8.83;100.00;98446.63;4973950;28;20056;-72
2022/04/07 04:06:57;;;;;;;16.55;3.33;;;;;;;8.78;100.00;98430.31;4956700;28;20037;-71
2022/04/07 04:09:22;;;;;;;25.67;3.42;;;;;;;8.72;100.00;98422.03;4966174;28;20110;-73
2022/04/07 04:11:48;;;;;;;15.52;3.60;;;;;;;8.63;100.00;98426.19;4939823;28;20034;-73
2022/04/07 04:14:13;;;;;;;17.63;3.45;;;;;;;8.59;100.00;98412.38;4962689;28;20494;-73
2022/04/07 04:16:38;;;;;;;14.93;3.03;;;;;;;8.55;100.00;98389.03;4970203;28;20027;-73
2022/04/07 04:19:04;;;;;;;13.20;2.90;;;;;;;8.48;100.00;98401.84;4945018;28;20027;-74
2022/04/07 04:21:31;;;;;;;14.77;3.13;;;;;;;8.46;100.00;98382.63;4944390;28;20099;-73
2022/04/07 04:23:56;;;;;;;18.30;3.20;;;;;;;8.44;100.00;98388.00;4971394;28;20030;-73
2022/04/07 04:26:21;;;;;;;18.02;3.47;;;;;;;8.42;100.00;98337.16;4931596;28;20035;-74
2022/04/07 04:28:47;;;;;;;9.38;2.40;;;;;;;8.38;100.00;98327.81;4940401;28;20062;-74
2022/04/07 04:31:12;;;;;;;16.35;2.97;;;;;;;8.38;100.00;98314.63;4968105;28;20041;-74
2022/04/07 04:33:37;;;;;;;18.15;2.92;;;;;;;8.35;100.00;98354.41;4940020;28;20027;-74
2022/04/07 04:36:03;;;;;;;14.85;2.92;;;;;;;8.33;100.00;98345.78;4968789;28;20084;-74
2022/04/07 04:38:29;;;;;;;20.30;3.15;;;;;;;8.29;100.00;98339.06;4942575;28;20030;-73
2022/04/07 04:40:54;;;;;;;11.48;2.58;;;;;;;8.26;100.00;98331.38;4954303;28;20454;-74
2022/04/07 04:43:20;;;;;;;13.90;2.70;;;;;;;8.25;100.00;98321.78;4958363;28;20097;-76
2022/04/07 04:45:45;;;;;;;11.80;2.78;;;;;;;8.24;100.00;98307.75;4981368;28;20130;-75
2022/04/07 04:48:10;;;;;;;10.27;2.83;;;;;;;8.24;100.00;98320.94;4957750;28;20109;-74
2022/04/07 04:50:36;;;;;;;12.77;2.47;;;;;;;8.20;100.00;98304.50;4967729;28;20118;-75
2022/04/07 04:53:01;;;;;;;15.68;3.05;;;;;;;8.15;100.00;98308.47;4965274;28;20447;-73
2022/04/07 04:55:27;;;;;;;18.25;3.42;;;;;;;8.16;100.00;98320.69;4950955;28;20070;-74
2022/04/07 04:57:52;;;;;;;11.45;2.58;;;;;;;8.18;100.00;98261.63;4973045;28;20050;-75
2022/04/07 05:00:18;;;;;;;9.05;2.45;;;;;;;8.19;100.00;98273.81;4963382;28;20029;-75
2022/04/07 05:02:43;;;;;;;14.77;2.63;;;;;;;8.17;100.00;98294.22;4930826;28;20118;-75
2022/04/07 05:05:08;;;;;;;9.13;2.60;;;;;;;8.13;100.00;98276.94;4956224;28;20039;-75
2022/04/07 05:07:34;;;;;;;16.77;2.92;;;;;;;8.10;100.00;98282.44;4950139;28;20486;-74
2022/04/07 05:09:59;;;;;;;11.57;2.47;;;;;;;8.06;100.00;98269.59;4968447;28;20393;-74
2022/04/07 05:12:26;;;;;;;14.00;2.60;;;;;;;8.03;100.00;98266.25;4952140;28;20490;-72
2022/04/07 05:14:52;;;;;;;9.20;3.15;;;;;;;8.04;100.00;98259.19;4970659;28;20510;-72
2022/04/07 05:17:19;;;;;;;10.75;2.58;;;;;;;8.01;100.00;98286.59;4951662;28;20031;-73
2022/04/07 05:19:45;;;;;;;12.68;2.58;;;;;;;8.02;100.00;98337.53;4970218;28;20034;-72
2022/04/07 05:22:11;;;;;;;12.05;2.65;;;;;;;7.99;100.00;98430.84;4963453;28;20035;-74
2022/04/07 05:24:36;;;;;;;12.20;1.40;;;;;;;7.09;100.00;98440.75;4951353;28;20046;-74
2022/04/07 05:27:03;;;;;;;9.98;2.15;;;;;;;5.96;100.00;98445.50;4971763;28;20502;-73
2022/04/07 05:29:28;;;;;;;8.68;1.65;;;;;;;5.05;100.00;98457.25;4966073;28;20066;-72
2022/04/07 05:31:53;;;;;;;5.82;1.30;;;;;;;4.64;100.00;98448.28;4966806;28;20499;-72
2022/04/07 05:34:19;;;;;;;6.60;1.38;;;;;;;4.42;100.00;98454.81;4951130;28;20035;-71
2022/04/07 05:36:44;;;;;;;10.55;1.73;;;;;;;4.28;100.00;98432.94;4933477;28;20043;-70
2022/04/07 05:39:10;;;;;;;7.13;1.77;;;;;;;4.32;100.00;98437.06;4969557;28;20027;-71
2022/04/07 05:41:35;;;;;;;9.20;1.95;;;;;;;4.38;100.00;98436.72;4952708;28;20068;-73
2022/04/07 05:44:01;;;;;;;10.90;2.13;;;;;;;4.43;100.00;98432.91;4935423;28;20383;-72
2022/04/07 05:46:26;;;;;;;8.65;1.60;;;;;;;4.45;100.00;98435.44;4966683;28;20046;-73
2022/04/07 05:48:51;;;;;;;10.63;1.70;;;;;;;4.57;100.00;98428.63;4951286;28;20035;-72
2022/04/07 05:51:17;;;;;;;12.07;1.95;;;;;;;4.58;100.00;98428.53;4955886;28;20037;-72
2022/04/07 05:53:42;;;;;;;12.63;2.20;;;;;;;4.69;100.00;98420.06;4952120;28;20316;-73
2022/04/07 05:56:08;;;;;;;13.68;2.30;;;;;;;4.76;100.00;98421.34;4948634;28;20087;-74
2022/04/07 05:58:33;;;;;;;11.18;2.00;;;;;;;4.83;100.00;98426.25;4929641;29;20032;-74
2022/04/07 06:00:58;;;;;;;9.95;1.80;;;;;;;4.90;100.00;98403.97;4927878;29;20184;-73
2022/04/07 06:03:24;;;;;;;13.90;2.40;;;;;;;4.97;100.00;98414.91;4930302;29;20059;-73
2022/04/07 06:05:52;;;;;;;11.95;2.28;;;;;;;5.05;100.00;98420.53;4913479;29;20059;-71
2022/04/07 06:08:19;;;;;;;13.18;2.20;;;;;;;5.15;100.00;98416.41;4922444;29;20079;-71
2022/04/07 06:10:44;;;;;;;17.60;2.03;;;;;;;5.20;100.00;98413.50;4923801;29;20036;-72
2022/04/07 06:13:11;;;;;;;6.57;1.40;;;;;;;5.20;100.00;98385.47;4933039;29;20349;-71
2022/04/07 06:15:37;;;;;;;7.03;1.48;;;;;;;5.22;100.00;98401.97;4925481;29;20544;-71
2022/04/07 06:18:02;;;;;;;7.72;1.77;;;;;;;5.20;100.00;98369.72;4944666;28;20489;-73
2022/04/07 06:20:28;;;;;;;7.80;1.45;;;;;;;5.22;100.00;98360.00;4946507;29;20048;-72
2022/04/07 06:22:53;;;;;;;7.15;1.38;;;;;;;5.29;100.00;98343.88;4932311;29;20039;-72
2022/04/07 06:25:19;;;;;;;13.55;1.80;;;;;;;5.33;100.00;98356.72;4927731;29;20043;-73
2022/04/07 06:27:46;;;;;;;11.77;1.75;;;;;;;5.36;100.00;98358.31;4930828;29;20511;-72
2022/04/07 06:30:16;;;;;;;6.13;1.60;;;;;;;5.39;100.00;98352.84;4939826;29;20146;-72
2022/04/07 06:32:42;;;;;;;9.35;1.88;;;;;;;5.40;100.00;98342.25;4933819;29;20090;-72
2022/04/07 06:35:10;;;;;;;10.40;1.80;;;;;;;5.41;100.00;98356.22;4944272;29;20431;-71
2022/04/07 06:37:52;;;;;;;6.25;1.73;;;;;;;5.41;100.00;98341.31;4953427;28;20028;-73
2022/04/07 06:40:20;;;;;;;9.02;1.63;;;;;;;5.44;100.00;98344.69;4951448;29;20506;-70
2022/04/07 06:42:46;;;;;;;14.38;2.20;;;;;;;5.45;100.00;98317.47;4953131;28;20030;-73
2022/04/07 06:45:11;;;;;;;9.57;1.42;;;;;;;5.43;100.00;98322.84;4943856;28;20036;-71
2022/04/07 06:47:38;;;;;;;8.50;1.70;;;;;;;5.41;100.00;98324.72;4933614;29;20131;-72
2022/04/07 06:50:05;;;;;;;10.85;1.90;;;;;;;5.42;100.00;98321.13;4933391;29;20031;-72
2022/04/07 06:52:30;;;;;;;10.18;2.33;;;;;;;5.39;100.00;98311.69;4933781;29;20042;-71
2022/04/07 06:54:55;;;;;;;8.25;1.63;;;;;;;5.41;100.00;98312.44;4942350;29;20031;-71
2022/04/07 06:57:21;;;;;;;11.10;1.80;;;;;;;5.43;100.00;98293.13;4959484;28;20146;-72
2022/04/07 06:59:46;;;;;;;10.23;1.92;;;;;;;5.45;100.00;98301.72;4953678;29;20027;-72
2022/04/07 07:02:11;;;;;;;11.88;2.60;;;;;;;5.49;100.00;98287.50;4952634;28;20047;-71
2022/04/07 07:04:37;;;;;;;8.27;1.90;;;;;;;5.53;100.00;98283.72;4959054;28;20114;-71
2022/04/07 07:07:02;;;;;;;6.13;1.35;;;;;;;5.56;100.00;98278.25;4952929;28;20126;-70
2022/04/07 07:09:27;;;;;;;5.32;1.55;;;;;;;5.60;100.00;98264.00;4961767;28;20138;-71
2022/04/07 07:11:53;;;;;;;14.38;3.60;;;;;;;5.67;100.00;98252.13;4955885;29;20102;-71
2022/04/07 07:14:18;;;;;;;7.53;1.92;;;;;;;5.71;100.00;98250.97;4955598;28;20031;-69
2022/04/07 07:16:44;;;;;;;10.52;2.60;;;;;;;5.76;100.00;98226.22;4955776;29;20038;-72
2022/04/07 07:19:10;;;;;;;17.48;3.33;;;;;;;5.81;100.00;98216.25;4970432;28;20395;-72
2022/04/07 07:21:36;;;;;;;8.70;2.00;;;;;;;5.84;100.00;98195.84;4954799;29;20492;-72
2022/04/07 07:24:01;;;;;;;10.90;2.20;;;;;;;5.87;100.00;98210.56;4955576;28;20034;-71
2022/04/07 07:26:27;;;;;;;11.82;2.60;;;;;;;5.93;100.00;98204.91;4954369;28;20023;-71
2022/04/07 07:28:52;;;;;;;17.42;5.43;;;;;;;6.06;100.00;98200.53;4972993;28;20406;-71
2022/04/07 07:31:17;;;;;;;9.50;2.33;;;;;;;6.17;100.00;98201.56;4938527;29;20067;-70
2022/04/07 07:33:43;;;;;;;9.02;2.63;;;;;;;6.27;100.00;98186.03;4945643;29;20067;-70
2022/04/07 07:36:08;;;;;;;13.00;1.90;;;;;;;6.44;100.00;98190.09;4955623;28;20038;-71
2022/04/07 07:38:34;;;;;;;13.52;2.13;;;;;;;6.50;100.00;98179.16;4960328;28;20082;-71
2022/04/07 07:40:59;;;;;;;7.32;1.83;;;;;;;6.56;100.00;98183.97;4941939;28;20442;-70
2022/04/07 07:43:24;;;;;;;9.02;2.03;;;;;;;6.60;100.00;98197.72;4972467;28;20035;-70
2022/04/07 07:45:50;;;;;;;9.43;2.00;;;;;;;6.67;100.00;98180.56;4970115;28;20031;-71
2022/04/07 07:48:18;;;;;;;6.65;1.38;;;;;;;6.76;100.00;98197.47;4960101;28;20090;-71
2022/04/07 07:50:45;;;;;;;8.32;1.83;;;;;;;6.77;100.00;98202.63;4954125;29;20027;-71
2022/04/07 07:53:11;;;;;;;9.27;1.70;;;;;;;6.75;100.00;98203.69;4938190;29;20050;-71
2022/04/07 07:55:37;;;;;;;9.27;1.95;;;;;;;6.84;100.00;98200.38;4956306;28;20031;-71
2022/04/07 07:58:03;;;;;;;9.27;1.92;;;;;;;6.92;100.00;98203.31;4974266;28;20053;-71
2022/04/07 08:00:29;;;;;;;8.52;1.80;;;;;;;7.00;100.00;98176.47;4974518;28;20035;-71
2022/04/07 08:02:54;;;;;;;9.50;2.22;;;;;;;7.13;100.00;98187.75;4974381;28;20031;-71
2022/04/07 08:05:19;;;;;;;10.65;1.90;;;;;;;7.36;100.00;98186.06;4972785;28;20027;-71
2022/04/07 08:07:45;;;;;;;8.73;1.88;;;;;;;7.41;100.00;98184.91;4982601;28;20565;-73
2022/04/07 08:10:10;;;;;;;6.32;1.52;;;;;;;7.44;100.00;98197.81;4972382;28;20035;-70
2022/04/07 08:12:36;;;;;;;8.25;1.80;;;;;;;7.59;100.00;98196.66;4957106;28;20043;-70
2022/04/07 08:15:03;;;;;;;9.52;2.30;;;;;;;7.87;100.00;98165.59;4974167;28;20039;-70
2022/04/07 08:17:29;;;;;;;14.52;2.33;;;;;;;8.12;100.00;98188.28;4974140;28;20031;-70
2022/04/07 08:19:54;;;;;;;9.50;1.73;;;;;;;8.39;100.00;98163.34;4975384;28;20117;-71
2022/04/07 08:22:19;;;;;;;11.80;2.67;;;;;;;8.58;100.00;98186.50;4973116;28;20486;-71
2022/04/07 08:24:45;;;;;;;7.82;1.92;;;;;;;8.75;100.00;98190.44;4985100;28;20034;-70
2022/04/07 08:27:12;;;;;;;9.30;2.13;;;;;;;8.86;100.00;98171.09;4971904;28;20432;-71
2022/04/07 08:29:39;;;;;;;12.25;2.47;;;;;;;8.92;99.65;98182.97;4974496;28;20043;-71
2022/04/07 08:32:04;;;;;;;11.00;2.55;;;;;;;9.08;97.86;98177.28;4979664;28;20034;-70
2022/04/07 08:34:30;;;;;;;8.32;2.53;;;;;;;9.04;96.28;98175.84;4956020;28;20034;-70
2022/04/07 08:36:55;;;;;;;11.05;2.30;;;;;;;9.06;97.42;98193.25;4979251;28;20038;-70
2022/04/07 08:39:21;;;;;;;9.93;2.00;;;;;;;9.08;98.20;98203.66;4973768;28;20022;-70
2022/04/07 08:41:48;;;;;;;9.52;2.35;;;;;;;9.05;96.15;98190.72;4973359;28;20027;-70
2022/04/07 08:44:16;;;;;;;13.90;2.53;;;;;;;8.99;95.79;98202.63;4973713;28;20015;-70
2022/04/07 08:46:47;;;;;;;9.88;2.00;;;;;;;9.21;98.63;98199.09;4973103;28;20398;-70
2022/04/07 08:49:15;;;;;;;11.13;2.03;;;;;;;9.33;95.58;98202.53;4973489;28;20433;-70
2022/04/07 08:51:41;;;;;;;10.43;2.58;;;;;;;9.21;93.67;98208.78;4992305;28;20026;-70
2022/04/07 08:54:12;;;;;;;10.73;2.45;;;;;;;9.21;92.25;98208.78;4993438;28;20108;-71
2022/04/07 08:56:38;;;;;;;14.07;2.60;;;;;;;9.34;91.44;98212.94;4990805;28;20070;-70
2022/04/07 08:59:04;;;;;;;19.23;2.28;;;;;;;9.46;88.02;98216.41;4968770;28;20117;-69
2022/04/07 09:01:29;;;;;;;13.10;2.83;;;;;;;9.40;84.02;98189.63;4973414;28;20117;-70
2022/04/07 09:03:54;;;;;;;10.15;2.30;;;;;;;9.52;84.05;98209.78;4972770;28;20074;-69
2022/04/07 09:06:21;;;;;;;10.10;2.50;;;;;;;9.57;85.19;98220.78;4956828;28;20034;-70
2022/04/07 09:08:46;;;;;;;10.68;2.38;;;;;;;9.72;84.36;98178.19;4963892;28;20041;-70
2022/04/07 09:11:12;;;;;;;13.85;2.45;;;;;;;9.94;86.17;98214.25;4976989;28;20027;-69
2022/04/07 09:13:44;;;;;;;12.65;2.33;;;;;;;10.08;81.53;98205.16;4939506;29;20040;-70
2022/04/07 09:16:12;;;;;;;13.60;2.03;;;;;;;10.15;81.65;98206.28;4957933;28;20023;-71
2022/04/07 09:18:39;;;;;;;9.98;2.42;;;;;;;10.08;81.40;98210.44;4972773;28;20037;-70
2022/04/07 09:21:06;;;;;;;11.57;2.80;;;;;;;9.98;79.84;98168.06;4982458;28;20097;-70
2022/04/07 09:23:39;;;;;;;11.13;2.13;;;;;;;9.88;80.25;98223.50;4991405;28;20035;-70
2022/04/07 09:26:05;;;;;;;9.38;2.30;;;;;;;9.64;80.30;98177.06;4992710;28;20026;-70
2022/04/07 09:28:31;;;;;;;12.40;2.42;;;;;;;9.56;82.92;98216.47;4972880;28;20022;-69
2022/04/07 09:30:59;;;;;;;11.98;2.42;;;;;;;9.48;81.72;98219.75;4965443;28;20037;-69
2022/04/07 09:33:26;;;;;;;10.57;2.75;;;;;;;9.57;81.32;98238.47;4973318;28;20019;-71
2022/04/07 09:36:03;;;;;;;11.13;2.70;;;;;;;9.66;80.90;98258.84;4971287;28;20031;-70
2022/04/07 09:38:30;;;;;;;13.02;3.00;;;;;;;9.63;82.23;98244.06;4972701;28;20030;-70
2022/04/07 09:41:06;;;;;;;12.57;2.72;;;;;;;9.56;81.33;98250.00;4983476;28;20045;-70
2022/04/07 09:43:41;;;;;;;15.30;2.85;;;;;;;9.72;81.55;98249.53;4992220;28;20053;-71
2022/04/07 09:46:11;;;;;;;10.18;2.45;;;;;;;9.77;82.87;98257.94;4992368;28;20489;-71
2022/04/07 09:48:37;;;;;;;14.27;2.78;;;;;;;9.66;82.19;98251.72;4992065;28;20045;-70
2022/04/07 09:51:08;;;;;;;14.45;2.45;;;;;;;9.56;83.68;98263.19;4990104;28;20045;-70
2022/04/07 09:53:39;;;;;;;12.13;2.65;;;;;;;9.54;80.36;98267.75;4992298;28;20101;-70
2022/04/07 09:56:06;;;;;;;11.38;2.60;;;;;;;9.34;81.36;98263.13;4985460;28;20065;-71
2022/04/07 09:58:33;;;;;;;16.23;2.80;;;;;;;9.26;82.25;98260.28;4990798;28;20038;-70
2022/04/07 10:01:01;;;;;;;18.83;3.28;;;;;;;9.27;82.11;98271.69;4985134;28;20263;-69
2022/04/07 10:03:28;;;;;;;13.57;2.78;;;;;;;9.44;81.54;98252.66;4971799;28;20022;-70
2022/04/07 10:05:54;;;;;;;17.02;2.97;;;;;;;9.57;80.11;98281.56;4982892;28;20034;-69
2022/04/07 10:08:21;;;;;;;13.73;3.10;;;;;;;9.56;79.46;98250.81;4955082;28;20046;-70
2022/04/07 10:10:47;;;;;;;15.68;2.85;;;;;;;9.55;79.36;98272.09;4985458;28;20530;-69
2022/04/07 10:13:14;;;;;;;15.52;2.97;;;;;;;9.47;78.88;98297.31;4975693;28;20066;-70
2022/04/07 10:15:40;;;;;;;15.25;2.95;;;;;;;9.41;79.81;98279.34;4976187;28;20118;-70
2022/04/07 10:18:13;;;;;;;20.25;3.45;;;;;;;9.37;79.79;98285.00;4990536;28;20110;-70
2022/04/07 10:20:44;;;;;;;17.27;3.10;;;;;;;9.30;78.71;98285.47;4974700;28;20030;-70
2022/04/07 10:23:41;;;;;;;14.02;2.47;;;;;;;9.25;77.92;98287.66;4974299;28;20025;-71
2022/04/07 10:26:10;;;;;;;18.20;3.90;;;;;;;9.46;77.88;98276.31;4959076;28;20113;-70
2022/04/07 10:28:36;;;;;;;13.20;3.15;;;;;;;9.67;76.71;98248.13;4970487;28;20038;-69
2022/04/07 10:31:12;;;;;;;19.30;2.90;;;;;;;9.90;76.81;98282.41;4958880;28;20420;-69
2022/04/07 10:33:46;;;;;;;18.33;2.90;;;;;;;10.01;75.55;98292.06;4969601;28;20505;-70
2022/04/07 10:36:22;;;;;;;18.27;3.22;;;;;;;10.06;76.77;98302.25;4962624;28;20027;-69
2022/04/07 10:38:51;;;;;;;13.80;2.60;;;;;;;10.56;74.79;98289.25;4959103;28;20042;-69
2022/04/07 10:41:34;;;;;;;18.52;3.47;;;;;;;11.01;72.43;98288.03;4986262;28;20447;-68
2022/04/07 10:44:07;;;;;;;23.08;3.55;;;;;;;10.83;72.51;98287.81;4979393;28;20588;-71
2022/04/07 10:46:33;;;;;;;12.20;2.90;;;;;;;11.32;69.91;98285.34;4972574;28;20037;-68
2022/04/07 10:49:03;;;;;;;15.63;3.22;;;;;;;11.77;66.05;98290.09;4977684;28;20036;-68
2022/04/07 10:51:42;;;;;;;20.17;3.53;;;;;;;11.78;67.28;98328.09;4956412;29;20035;-70
2022/04/07 10:54:08;;;;;;;11.85;3.20;;;;;;;11.39;69.31;98314.75;4975338;28;20031;-68
2022/04/07 10:56:39;;;;;;;17.35;2.90;;;;;;;11.28;69.01;98297.19;4960878;28;20086;-69
2022/04/07 10:59:27;;;;;;;15.00;3.08;;;;;;;11.18;69.19;98314.84;4971648;28;20069;-69
2022/04/07 11:01:57;;;;;;;19.08;3.63;;;;;;;11.35;70.13;98310.72;4957573;28;20380;-70
2022/04/07 11:04:22;;;;;;;14.32;3.00;;;;;;;11.70;67.58;98335.88;4967590;28;20387;-69
2022/04/07 11:07:07;;;;;;;16.08;2.92;;;;;;;12.53;64.64;98317.72;4961302;28;20039;-69
2022/04/07 11:09:53;;;;;;;15.10;3.10;;;;;;;12.20;63.69;98327.84;4973537;28;20023;-69
2022/04/07 11:12:25;;;;;;;17.55;3.20;;;;;;;12.06;64.48;98317.63;4971647;28;20562;-70
2022/04/07 11:14:53;;;;;;;10.57;3.05;;;;;;;11.85;65.28;98323.06;4967697;28;20027;-69
2022/04/07 11:17:34;;;;;;;12.05;2.55;;;;;;;11.73;66.48;98328.50;4992946;28;20033;-71
2022/04/07 11:20:16;;;;;;;19.23;3.40;;;;;;;11.28;66.25;98308.59;4993367;28;20034;-69
2022/04/07 11:22:44;;;;;;;;;;;;;;;11.29;66.32;98315.59;4993537;28;20335;-69
2022/04/07 11:25:11;;;;;;;11.30;2.53;;;;;;;11.14;67.86;98299.22;4973067;28;20433;-70
2022/04/07 11:27:42;;;;;;;15.48;2.50;;;;;;;11.47;66.31;98322.84;4975438;28;20058;-70